createdAt,value
2018-12-30T00:00:18.524Z,0.00
2018-12-30T00:01:18.338Z,0.00
2018-12-30T00:02:18.289Z,0.00
2018-12-30T00:03:18.267Z,0.00
2018-12-30T00:04:18.581Z,0.00
2018-12-30T00:05:18.246Z,0.00
2018-12-30T00:06:18.234Z,0.00
2018-12-30T00:07:18.230Z,0.00
2018-12-30T00:08:18.230Z,0.00
2018-12-30T00:09:18.208Z,0.00
2018-12-30T00:10:18.219Z,0.00
2018-12-30T00:11:18.179Z,0.00
2018-12-30T00:12:18.176Z,0.00
2018-12-30T00:13:18.163Z,0.00
2018-12-30T00:14:18.162Z,0.00
2018-12-30T00:15:18.135Z,0.00
2018-12-30T00:16:18.154Z,0.00
2018-12-30T00:17:18.114Z,0.00
2018-12-30T00:18:18.104Z,0.00
2018-12-30T00:19:18.093Z,0.00
2018-12-30T00:20:18.090Z,0.00
2018-12-30T00:21:18.087Z,0.00
2018-12-30T00:22:18.099Z,0.00
2018-12-30T00:23:18.777Z,0.00
2018-12-30T00:24:18.107Z,0.00
2018-12-30T00:25:18.089Z,0.00
2018-12-30T00:26:18.015Z,0.00
2018-12-30T00:27:18.044Z,0.00
2018-12-30T00:28:18.117Z,0.00
2018-12-30T00:29:18.378Z,0.00
2018-12-30T00:30:17.979Z,0.00
2018-12-30T00:31:17.962Z,0.00
2018-12-30T00:32:17.992Z,0.00
2018-12-30T00:33:17.947Z,0.00
2018-12-30T00:34:18.139Z,0.00
2018-12-30T00:35:17.916Z,0.00
2018-12-30T00:36:17.912Z,0.00
2018-12-30T00:37:17.910Z,0.00
2018-12-30T00:38:17.888Z,0.00
2018-12-30T00:39:17.877Z,0.00
2018-12-30T00:40:17.953Z,0.00
2018-12-30T00:41:17.861Z,0.00
2018-12-30T00:42:17.862Z,0.00
2018-12-30T00:43:17.837Z,0.00
2018-12-30T00:44:17.924Z,0.00
2018-12-30T00:45:17.924Z,0.00
2018-12-30T00:46:17.907Z,0.00
2018-12-30T00:47:17.784Z,0.00
2018-12-30T00:48:17.795Z,0.00
2018-12-30T00:49:17.773Z,0.00
2018-12-30T00:50:17.772Z,0.00
2018-12-30T00:51:17.750Z,0.00
2018-12-30T00:52:17.765Z,0.00
2018-12-30T00:53:17.732Z,0.00
2018-12-30T00:54:17.721Z,0.00
2018-12-30T00:55:17.706Z,0.00
2018-12-30T00:56:17.703Z,0.00
2018-12-30T00:57:17.686Z,0.00
2018-12-30T00:58:17.705Z,0.00
2018-12-30T00:59:17.664Z,0.00
2018-12-30T01:00:17.644Z,0.00
2018-12-30T01:01:17.642Z,0.00
2018-12-30T01:02:17.637Z,0.00
2018-12-30T01:03:17.614Z,0.00
2018-12-30T01:04:17.657Z,0.00
2018-12-30T01:05:17.605Z,0.00
2018-12-30T01:06:17.610Z,0.00
2018-12-30T01:07:17.569Z,0.00
2018-12-30T01:08:17.566Z,0.00
2018-12-30T01:09:17.554Z,0.00
2018-12-30T01:10:17.578Z,0.00
2018-12-30T01:11:17.527Z,0.00
2018-12-30T01:12:17.511Z,0.00
2018-12-30T01:13:17.517Z,0.00
2018-12-30T01:14:17.495Z,0.00
2018-12-30T01:15:17.482Z,0.00
2018-12-30T01:16:17.499Z,0.00
2018-12-30T01:17:17.461Z,0.00
2018-12-30T01:18:17.466Z,0.00
2018-12-30T01:19:17.436Z,0.00
2018-12-30T01:20:17.427Z,0.00
2018-12-30T01:21:24.794Z,0.00
2018-12-30T01:22:18.434Z,0.00
2018-12-30T01:23:17.395Z,0.00
2018-12-30T01:24:17.387Z,0.00
2018-12-30T01:25:17.383Z,0.00
2018-12-30T01:26:17.391Z,0.00
2018-12-30T01:27:17.354Z,0.00
2018-12-30T01:28:17.380Z,0.00
2018-12-30T01:29:17.334Z,0.00
2018-12-30T01:30:17.322Z,0.00
2018-12-30T01:31:17.320Z,0.00
2018-12-30T01:32:17.294Z,0.00
2018-12-30T01:33:17.285Z,0.00
2018-12-30T01:34:17.303Z,0.00
2018-12-30T01:35:17.265Z,0.00
2018-12-30T01:36:17.254Z,0.00
2018-12-30T01:37:17.245Z,0.00
2018-12-30T01:38:17.239Z,0.00
2018-12-30T01:39:17.233Z,0.00
2018-12-30T01:40:17.249Z,0.00
2018-12-30T01:41:17.212Z,0.00
2018-12-30T01:42:17.205Z,0.00
2018-12-30T01:43:17.192Z,0.00
2018-12-30T01:44:17.164Z,0.00
2018-12-30T01:45:17.165Z,0.00
2018-12-30T01:46:17.191Z,0.00
2018-12-30T01:47:17.144Z,0.00
2018-12-30T01:48:17.126Z,0.00
2018-12-30T01:49:17.112Z,0.00
2018-12-30T01:50:17.120Z,0.00
2018-12-30T01:51:17.086Z,0.00
2018-12-30T01:52:17.107Z,0.00
2018-12-30T01:53:17.065Z,0.00
2018-12-30T01:54:17.054Z,0.00
2018-12-30T01:55:17.051Z,0.00
2018-12-30T01:56:17.038Z,0.00
2018-12-30T01:57:17.028Z,0.00
2018-12-30T01:58:17.063Z,0.00
2018-12-30T01:59:17.013Z,0.00
2018-12-30T02:00:17.048Z,0.00
2018-12-30T02:01:16.997Z,0.00
2018-12-30T02:02:16.981Z,0.00
2018-12-30T02:03:16.964Z,0.00
2018-12-30T02:04:16.980Z,0.00
2018-12-30T02:05:16.944Z,0.00
2018-12-30T02:06:16.935Z,0.00
2018-12-30T02:07:16.920Z,0.00
2018-12-30T02:08:18.219Z,0.00
2018-12-30T02:09:16.890Z,0.00
2018-12-30T02:10:16.914Z,0.00
2018-12-30T02:11:16.878Z,0.00
2018-12-30T02:12:16.871Z,0.00
2018-12-30T02:13:16.846Z,0.00
2018-12-30T02:14:16.882Z,0.00
2018-12-30T02:15:16.825Z,0.00
2018-12-30T02:16:16.844Z,0.00
2018-12-30T02:17:16.813Z,0.00
2018-12-30T02:18:16.796Z,0.00
2018-12-30T02:19:16.781Z,0.00
2018-12-30T02:20:16.771Z,0.00
2018-12-30T02:21:16.760Z,0.00
2018-12-30T02:22:16.779Z,0.00
2018-12-30T02:23:16.754Z,0.00
2018-12-30T02:24:16.728Z,0.00
2018-12-30T02:25:16.719Z,0.00
2018-12-30T02:26:16.710Z,0.00
2018-12-30T02:27:16.694Z,0.00
2018-12-30T02:28:16.712Z,0.00
2018-12-30T02:29:16.677Z,0.00
2018-12-30T02:30:16.677Z,0.00
2018-12-30T02:31:16.662Z,0.00
2018-12-30T02:32:16.652Z,0.00
2018-12-30T02:33:16.630Z,0.00
2018-12-30T02:34:16.665Z,0.00
2018-12-30T02:35:16.618Z,0.00
2018-12-30T02:36:16.597Z,0.00
2018-12-30T02:37:16.586Z,0.00
2018-12-30T02:38:16.590Z,0.00
2018-12-30T02:39:16.569Z,0.00
2018-12-30T02:40:16.588Z,0.00
2018-12-30T02:41:16.547Z,0.00
2018-12-30T02:42:16.535Z,0.00
2018-12-30T02:43:16.528Z,0.00
2018-12-30T02:44:16.516Z,0.00
2018-12-30T02:45:16.508Z,0.00
2018-12-30T02:46:16.525Z,0.00
2018-12-30T02:47:16.484Z,0.00
2018-12-30T02:48:16.496Z,0.00
2018-12-30T02:49:16.468Z,0.00
2018-12-30T02:50:16.457Z,0.00
2018-12-30T02:51:16.449Z,0.00
2018-12-30T02:52:16.484Z,0.00
2018-12-30T02:53:16.422Z,0.00
2018-12-30T02:54:16.419Z,0.00
2018-12-30T02:55:16.437Z,0.00
2018-12-30T02:56:16.395Z,0.00
2018-12-30T02:57:16.380Z,0.00
2018-12-30T02:58:16.398Z,0.00
2018-12-30T02:59:16.375Z,0.00
2018-12-30T03:00:16.353Z,0.00
2018-12-30T03:01:16.356Z,0.00
2018-12-30T03:02:16.345Z,0.00
2018-12-30T03:03:16.308Z,0.00
2018-12-30T03:04:16.351Z,0.00
2018-12-30T03:05:16.293Z,0.00
2018-12-30T03:06:16.299Z,0.00
2018-12-30T03:07:16.273Z,0.00
2018-12-30T03:08:16.248Z,0.00
2018-12-30T03:09:16.255Z,0.00
2018-12-30T03:10:16.267Z,0.00
2018-12-30T03:11:16.250Z,0.00
2018-12-30T03:12:16.227Z,0.00
2018-12-30T03:13:16.199Z,0.00
2018-12-30T03:14:16.192Z,0.00
2018-12-30T03:15:16.175Z,0.00
2018-12-30T03:16:16.211Z,0.00
2018-12-30T03:17:16.152Z,0.00
2018-12-30T03:18:16.144Z,0.00
2018-12-30T03:19:16.143Z,0.00
2018-12-30T03:20:16.120Z,0.00
2018-12-30T03:21:16.110Z,0.00
2018-12-30T03:22:16.136Z,0.00
2018-12-30T03:23:16.088Z,0.00
2018-12-30T03:24:16.082Z,0.00
2018-12-30T03:25:16.066Z,0.00
2018-12-30T03:26:16.053Z,0.00
2018-12-30T03:27:16.044Z,0.00
2018-12-30T03:28:16.062Z,0.00
2018-12-30T03:29:16.021Z,0.00
2018-12-30T03:30:16.026Z,0.00
2018-12-30T03:31:16.010Z,0.00
2018-12-30T03:32:16.011Z,0.00
2018-12-30T03:33:15.990Z,0.00
2018-12-30T03:34:16.012Z,0.00
2018-12-30T03:35:15.965Z,0.00
2018-12-30T03:36:15.957Z,0.00
2018-12-30T03:37:15.949Z,0.00
2018-12-30T03:38:15.930Z,0.00
2018-12-30T03:39:15.928Z,0.00
2018-12-30T03:40:15.945Z,0.00
2018-12-30T03:41:15.903Z,0.00
2018-12-30T03:42:15.882Z,0.00
2018-12-30T03:43:15.871Z,0.00
2018-12-30T03:44:15.869Z,0.00
2018-12-30T03:45:15.865Z,0.00
2018-12-30T03:46:15.888Z,0.00
2018-12-30T03:47:15.837Z,0.00
2018-12-30T03:48:15.816Z,0.00
2018-12-30T03:49:15.820Z,0.00
2018-12-30T03:50:15.809Z,0.00
2018-12-30T03:51:15.793Z,0.00
2018-12-30T03:52:15.818Z,0.00
2018-12-30T03:53:15.765Z,0.00
2018-12-30T03:54:15.766Z,0.00
2018-12-30T03:55:15.738Z,0.00
2018-12-30T03:56:15.730Z,0.00
2018-12-30T03:57:15.731Z,0.00
2018-12-30T03:58:15.740Z,0.00
2018-12-30T03:59:15.700Z,0.00
2018-12-30T04:00:15.684Z,0.00
2018-12-30T04:01:15.677Z,0.00
2018-12-30T04:02:15.677Z,0.00
2018-12-30T04:03:15.652Z,0.00
2018-12-30T04:04:15.672Z,0.00
2018-12-30T04:05:15.642Z,0.00
2018-12-30T04:06:15.625Z,0.00
2018-12-30T04:07:15.610Z,0.00
2018-12-30T04:08:15.606Z,0.00
2018-12-30T04:09:15.587Z,0.00
2018-12-30T04:10:15.608Z,0.00
2018-12-30T04:11:15.566Z,0.00
2018-12-30T04:12:15.554Z,0.00
2018-12-30T04:13:15.546Z,0.00
2018-12-30T04:14:15.540Z,0.00
2018-12-30T04:15:15.527Z,0.00
2018-12-30T04:16:15.568Z,0.00
2018-12-30T04:17:15.517Z,0.00
2018-12-30T04:18:15.500Z,0.00
2018-12-30T04:19:15.485Z,0.00
2018-12-30T04:20:15.478Z,0.00
2018-12-30T04:21:15.460Z,0.00
2018-12-30T04:22:17.025Z,0.00
2018-12-30T04:23:15.448Z,0.00
2018-12-30T04:24:15.433Z,0.00
2018-12-30T04:25:15.434Z,0.00
2018-12-30T04:26:15.402Z,0.00
2018-12-30T04:27:15.410Z,0.00
2018-12-30T04:28:15.432Z,0.00
2018-12-30T04:29:15.370Z,0.00
2018-12-30T04:30:15.372Z,0.00
2018-12-30T04:31:15.363Z,0.00
2018-12-30T04:32:15.351Z,0.00
2018-12-30T04:33:15.339Z,0.00
2018-12-30T04:34:15.351Z,0.00
2018-12-30T04:35:15.305Z,0.00
2018-12-30T04:36:15.293Z,0.00
2018-12-30T04:37:15.285Z,0.00
2018-12-30T04:38:15.283Z,0.00
2018-12-30T04:39:15.272Z,0.00
2018-12-30T04:40:15.285Z,0.00
2018-12-30T04:41:15.241Z,0.00
2018-12-30T04:42:15.229Z,0.00
2018-12-30T04:43:15.249Z,0.00
2018-12-30T04:44:15.223Z,0.00
2018-12-30T04:45:15.206Z,0.00
2018-12-30T04:46:15.251Z,0.00
2018-12-30T04:47:15.187Z,0.00
2018-12-30T04:48:15.170Z,0.00
2018-12-30T04:49:15.165Z,0.00
2018-12-30T04:50:15.149Z,0.00
2018-12-30T04:51:15.171Z,0.00
2018-12-30T04:52:15.163Z,0.00
2018-12-30T04:53:15.110Z,0.00
2018-12-30T04:54:15.107Z,0.00
2018-12-30T04:55:15.096Z,0.00
2018-12-30T04:56:15.089Z,0.00
2018-12-30T04:57:15.072Z,0.00
2018-12-30T04:58:15.093Z,0.00
2018-12-30T04:59:15.050Z,0.00
2018-12-30T05:00:15.032Z,0.00
2018-12-30T05:01:15.033Z,0.00
2018-12-30T05:02:15.014Z,0.00
2018-12-30T05:03:15.003Z,0.00
2018-12-30T05:04:15.033Z,0.00
2018-12-30T05:05:15.040Z,0.00
2018-12-30T05:06:15.000Z,0.00
2018-12-30T05:07:14.971Z,0.00
2018-12-30T05:08:14.957Z,0.00
2018-12-30T05:09:14.945Z,0.00
2018-12-30T05:10:15.017Z,0.00
2018-12-30T05:11:14.959Z,0.00
2018-12-30T05:12:14.915Z,0.00
2018-12-30T05:13:14.902Z,0.00
2018-12-30T05:14:14.893Z,0.00
2018-12-30T05:15:14.872Z,0.00
2018-12-30T05:16:14.891Z,0.00
2018-12-30T05:17:14.849Z,0.00
2018-12-30T05:18:14.853Z,0.00
2018-12-30T05:19:14.837Z,0.00
2018-12-30T05:20:14.828Z,0.00
2018-12-30T05:21:14.817Z,0.00
2018-12-30T05:22:14.828Z,0.00
2018-12-30T05:23:14.798Z,0.00
2018-12-30T05:24:14.773Z,0.00
2018-12-30T05:25:14.783Z,0.00
2018-12-30T05:26:14.760Z,0.00
2018-12-30T05:27:14.752Z,0.00
2018-12-30T05:28:14.781Z,0.00
2018-12-30T05:29:14.721Z,0.00
2018-12-30T05:30:14.719Z,0.00
2018-12-30T05:31:14.697Z,0.00
2018-12-30T05:32:14.703Z,0.00
2018-12-30T05:33:14.676Z,0.00
2018-12-30T05:34:14.696Z,0.00
2018-12-30T05:35:14.666Z,0.00
2018-12-30T05:36:14.652Z,0.00
2018-12-30T05:37:14.639Z,0.00
2018-12-30T05:38:14.636Z,0.00
2018-12-30T05:39:14.616Z,0.00
2018-12-30T05:40:14.649Z,0.00
2018-12-30T05:41:14.602Z,0.00
2018-12-30T05:42:14.585Z,0.00
2018-12-30T05:43:14.575Z,0.00
2018-12-30T05:44:14.571Z,0.00
2018-12-30T05:45:14.549Z,0.00
2018-12-30T05:46:14.578Z,0.00
2018-12-30T05:47:14.526Z,0.00
2018-12-30T05:48:14.512Z,0.00
2018-12-30T05:49:14.558Z,0.00
2018-12-30T05:50:14.502Z,0.00
2018-12-30T05:51:14.479Z,0.00
2018-12-30T05:52:14.519Z,0.00
2018-12-30T05:53:14.467Z,0.00
2018-12-30T05:54:14.448Z,0.00
2018-12-30T05:55:14.444Z,0.00
2018-12-30T05:56:14.431Z,0.00
2018-12-30T05:57:14.425Z,0.00
2018-12-30T05:58:14.444Z,0.00
2018-12-30T05:59:14.395Z,0.00
2018-12-30T06:00:14.388Z,0.00
2018-12-30T06:01:14.387Z,0.00
2018-12-30T06:02:14.362Z,0.00
2018-12-30T06:03:14.363Z,0.00
2018-12-30T06:04:14.397Z,0.00
2018-12-30T06:05:14.326Z,0.00
2018-12-30T06:06:14.318Z,0.00
2018-12-30T06:07:14.306Z,0.00
2018-12-30T06:08:14.318Z,0.00
2018-12-30T06:09:14.309Z,0.00
2018-12-30T06:10:14.316Z,0.00
2018-12-30T06:11:14.263Z,0.00
2018-12-30T06:12:14.260Z,0.00
2018-12-30T06:13:14.241Z,0.00
2018-12-30T06:14:14.233Z,0.00
2018-12-30T06:15:14.223Z,0.00
2018-12-30T06:16:14.255Z,0.00
2018-12-30T06:17:14.204Z,0.00
2018-12-30T06:18:14.187Z,0.00
2018-12-30T06:19:14.187Z,0.00
2018-12-30T06:20:14.165Z,0.00
2018-12-30T06:21:14.154Z,0.00
2018-12-30T06:22:14.198Z,0.00
2018-12-30T06:23:14.140Z,0.00
2018-12-30T06:24:14.126Z,0.00
2018-12-30T06:25:14.112Z,0.00
2018-12-30T06:26:14.105Z,0.00
2018-12-30T06:27:14.089Z,0.00
2018-12-30T06:28:14.114Z,0.00
2018-12-30T06:29:14.074Z,0.00
2018-12-30T06:30:14.078Z,0.00
2018-12-30T06:31:14.048Z,0.00
2018-12-30T06:32:14.056Z,0.00
2018-12-30T06:33:14.023Z,0.00
2018-12-30T06:34:14.054Z,0.00
2018-12-30T06:35:14.008Z,0.00
2018-12-30T06:36:13.996Z,0.00
2018-12-30T06:37:13.997Z,0.00
2018-12-30T06:38:13.975Z,0.00
2018-12-30T06:39:13.961Z,0.00
2018-12-30T06:40:13.983Z,0.00
2018-12-30T06:41:13.943Z,0.00
2018-12-30T06:42:13.936Z,0.00
2018-12-30T06:43:13.933Z,0.00
2018-12-30T06:44:13.910Z,0.00
2018-12-30T06:45:13.896Z,0.00
2018-12-30T06:46:13.915Z,0.00
2018-12-30T06:47:13.877Z,0.00
2018-12-30T06:48:13.862Z,0.00
2018-12-30T06:49:13.869Z,0.00
2018-12-30T06:50:13.843Z,0.00
2018-12-30T06:51:13.828Z,0.00
2018-12-30T06:52:13.872Z,0.00
2018-12-30T06:53:13.806Z,0.00
2018-12-30T06:54:13.798Z,0.00
2018-12-30T06:55:13.798Z,0.00
2018-12-30T06:56:13.785Z,0.00
2018-12-30T06:57:13.765Z,0.00
2018-12-30T06:58:13.795Z,0.00
2018-12-30T06:59:13.748Z,0.00
2018-12-30T07:00:13.731Z,0.00
2018-12-30T07:01:13.722Z,0.00
2018-12-30T07:02:13.718Z,0.00
2018-12-30T07:03:13.764Z,0.00
2018-12-30T07:04:13.721Z,4.00
2018-12-30T07:05:13.680Z,4.00
2018-12-30T07:06:13.669Z,0.00
2018-12-30T07:07:13.701Z,4.00
2018-12-30T07:08:13.647Z,4.00
2018-12-30T07:09:13.692Z,4.00
2018-12-30T07:10:13.658Z,8.00
2018-12-30T07:11:13.612Z,8.00
2018-12-30T07:12:13.600Z,12.00
2018-12-30T07:13:13.806Z,12.00
2018-12-30T07:14:13.581Z,12.00
2018-12-30T07:15:13.569Z,16.00
2018-12-30T07:16:13.586Z,16.00
2018-12-30T07:17:13.549Z,20.00
2018-12-30T07:18:13.646Z,24.00
2018-12-30T07:19:13.637Z,28.00
2018-12-30T07:20:13.561Z,32.00
2018-12-30T07:21:13.564Z,32.00
2018-12-30T07:22:13.532Z,36.00
2018-12-30T07:23:13.483Z,40.00
2018-12-30T07:24:13.496Z,44.00
2018-12-30T07:25:13.477Z,52.00
2018-12-30T07:26:13.447Z,52.00
2018-12-30T07:27:13.446Z,64.00
2018-12-30T07:28:13.495Z,64.00
2018-12-30T07:29:13.417Z,64.00
2018-12-30T07:30:13.424Z,72.00
2018-12-30T07:31:13.398Z,84.00
2018-12-30T07:32:13.381Z,92.00
2018-12-30T07:33:13.390Z,100.00
2018-12-30T07:34:13.393Z,108.00
2018-12-30T07:35:13.348Z,108.00
2018-12-30T07:36:13.351Z,116.00
2018-12-30T07:37:14.602Z,128.00
2018-12-30T07:38:14.362Z,144.00
2018-12-30T07:39:13.422Z,164.00
2018-12-30T07:40:13.328Z,184.00
2018-12-30T07:41:13.325Z,192.00
2018-12-30T07:42:13.286Z,196.00
2018-12-30T07:43:13.262Z,216.00
2018-12-30T07:44:13.257Z,240.00
2018-12-30T07:45:13.239Z,260.00
2018-12-30T07:46:13.258Z,276.00
2018-12-30T07:47:13.221Z,280.00
2018-12-30T07:48:13.207Z,284.00
2018-12-30T07:49:13.212Z,300.00
2018-12-30T07:50:13.221Z,316.00
2018-12-30T07:51:14.957Z,332.00
2018-12-30T07:52:13.195Z,340.00
2018-12-30T07:53:13.848Z,360.00
2018-12-30T07:54:13.153Z,392.00
2018-12-30T07:55:13.145Z,416.00
2018-12-30T07:56:13.127Z,432.00
2018-12-30T07:57:13.110Z,444.00
2018-12-30T07:58:13.144Z,452.00
2018-12-30T07:59:13.102Z,464.00
2018-12-30T08:00:13.082Z,472.00
2018-12-30T08:01:13.066Z,500.00
2018-12-30T08:02:13.084Z,540.00
2018-12-30T08:03:13.052Z,544.00
2018-12-30T08:04:13.148Z,540.00
2018-12-30T08:05:13.029Z,564.00
2018-12-30T08:06:13.017Z,592.00
2018-12-30T08:07:13.075Z,644.00
2018-12-30T08:08:12.996Z,644.00
2018-12-30T08:09:13.006Z,644.00
2018-12-30T08:10:13.030Z,688.00
2018-12-30T08:11:12.967Z,800.00
2018-12-30T08:12:12.948Z,904.00
2018-12-30T08:13:12.950Z,884.00
2018-12-30T08:14:12.957Z,816.00
2018-12-30T08:15:12.927Z,828.00
2018-12-30T08:16:12.951Z,900.00
2018-12-30T08:17:12.899Z,940.00
2018-12-30T08:18:12.909Z,912.00
2018-12-30T08:19:12.888Z,944.00
2018-12-30T08:20:12.865Z,1052.00
2018-12-30T08:21:12.863Z,1192.00
2018-12-30T08:22:12.876Z,1320.00
2018-12-30T08:23:12.832Z,1444.00
2018-12-30T08:24:12.820Z,1592.00
2018-12-30T08:25:12.816Z,1676.00
2018-12-30T08:26:12.966Z,1752.00
2018-12-30T08:27:12.831Z,1856.00
2018-12-30T08:28:12.961Z,1764.00
2018-12-30T08:29:12.763Z,1560.00
2018-12-30T08:30:12.758Z,1196.00
2018-12-30T08:31:12.745Z,1176.00
2018-12-30T08:32:12.738Z,1208.00
2018-12-30T08:33:12.749Z,1252.00
2018-12-30T08:34:12.751Z,1400.00
2018-12-30T08:35:12.706Z,1636.00
2018-12-30T08:36:12.696Z,1800.00
2018-12-30T08:37:12.675Z,1832.00
2018-12-30T08:38:12.676Z,2280.00
2018-12-30T08:39:12.660Z,2600.00
2018-12-30T08:40:12.684Z,2876.00
2018-12-30T08:41:12.645Z,3120.00
2018-12-30T08:42:12.629Z,2996.00
2018-12-30T08:43:12.613Z,3096.00
2018-12-30T08:44:12.626Z,3232.00
2018-12-30T08:45:12.595Z,3220.00
2018-12-30T08:46:12.604Z,3248.00
2018-12-30T08:47:12.653Z,3256.00
2018-12-30T08:48:12.558Z,3272.00
2018-12-30T08:49:12.553Z,3236.00
2018-12-30T08:50:12.548Z,3140.00
2018-12-30T08:51:12.570Z,3152.00
2018-12-30T08:52:12.558Z,2968.00
2018-12-30T08:53:12.514Z,3004.00
2018-12-30T08:54:12.489Z,3332.00
2018-12-30T08:55:12.477Z,3408.00
2018-12-30T08:56:12.474Z,3412.00
2018-12-30T08:57:12.462Z,3424.00
2018-12-30T08:58:12.504Z,3352.00
2018-12-30T08:59:12.475Z,3512.00
2018-12-30T09:00:12.435Z,3468.00
2018-12-30T09:01:12.419Z,3416.00
2018-12-30T09:02:12.425Z,3436.00
2018-12-30T09:03:12.400Z,3408.00
2018-12-30T09:04:12.432Z,3240.00
2018-12-30T09:05:12.380Z,3128.00
2018-12-30T09:06:12.359Z,2892.00
2018-12-30T09:07:12.351Z,2672.00
2018-12-30T09:08:12.344Z,2448.00
2018-12-30T09:09:12.345Z,2256.00
2018-12-30T09:10:12.346Z,2316.00
2018-12-30T09:11:12.327Z,2144.00
2018-12-30T09:12:12.345Z,2208.00
2018-12-30T09:13:12.290Z,2328.00
2018-12-30T09:14:12.284Z,2360.00
2018-12-30T09:15:12.278Z,2376.00
2018-12-30T09:16:12.290Z,2428.00
2018-12-30T09:17:12.252Z,2592.00
2018-12-30T09:18:12.244Z,2968.00
2018-12-30T09:19:12.224Z,3232.00
2018-12-30T09:20:12.240Z,2876.00
2018-12-30T09:21:12.214Z,2824.00
2018-12-30T09:22:12.219Z,3004.00
2018-12-30T09:23:12.180Z,3532.00
2018-12-30T09:24:12.179Z,3900.00
2018-12-30T09:25:12.158Z,4216.00
2018-12-30T09:26:12.148Z,4172.00
2018-12-30T09:27:12.197Z,4340.00
2018-12-30T09:28:12.166Z,4408.00
2018-12-30T09:29:12.115Z,4492.00
2018-12-30T09:30:12.106Z,4340.00
2018-12-30T09:31:12.090Z,5224.00
2018-12-30T09:32:12.084Z,4828.00
2018-12-30T09:33:12.104Z,4676.00
2018-12-30T09:34:12.086Z,4736.00
2018-12-30T09:35:12.044Z,4872.00
2018-12-30T09:36:12.042Z,4448.00
2018-12-30T09:37:12.060Z,4480.00
2018-12-30T09:38:12.007Z,4452.00
2018-12-30T09:39:12.001Z,4672.00
2018-12-30T09:40:12.027Z,4576.00
2018-12-30T09:41:11.984Z,4396.00
2018-12-30T09:42:11.972Z,4844.00
2018-12-30T09:43:11.958Z,5848.00
2018-12-30T09:44:11.943Z,5864.00
2018-12-30T09:45:11.940Z,5096.00
2018-12-30T09:46:11.988Z,5388.00
2018-12-30T09:47:11.918Z,6188.00
2018-12-30T09:48:11.909Z,6040.00
2018-12-30T09:49:11.887Z,6164.00
2018-12-30T09:50:11.896Z,6160.00
2018-12-30T09:51:11.873Z,6264.00
2018-12-30T09:52:11.896Z,5764.00
2018-12-30T09:53:11.850Z,5696.00
2018-12-30T09:54:11.853Z,5756.00
2018-12-30T09:55:11.820Z,5144.00
2018-12-30T09:56:11.814Z,4748.00
2018-12-30T09:57:11.802Z,4652.00
2018-12-30T09:58:11.840Z,4984.00
2018-12-30T09:59:11.786Z,5344.00
2018-12-30T10:00:11.786Z,6212.00
2018-12-30T10:01:11.776Z,7216.00
2018-12-30T10:02:11.783Z,7788.00
2018-12-30T10:03:11.741Z,8472.00
2018-12-30T10:04:11.763Z,9568.00
2018-12-30T10:05:11.770Z,10008.00
2018-12-30T10:06:11.751Z,9724.00
2018-12-30T10:07:11.718Z,9824.00
2018-12-30T10:08:11.683Z,9564.00
2018-12-30T10:09:11.684Z,8512.00
2018-12-30T10:10:11.688Z,6832.00
2018-12-30T10:11:11.648Z,5188.00
2018-12-30T10:12:11.665Z,4968.00
2018-12-30T10:13:11.731Z,5340.00
2018-12-30T10:14:11.624Z,5904.00
2018-12-30T10:15:11.631Z,6836.00
2018-12-30T10:16:11.628Z,7588.00
2018-12-30T10:17:11.587Z,7576.00
2018-12-30T10:18:11.652Z,8096.00
2018-12-30T10:19:11.572Z,7460.00
2018-12-30T10:20:11.547Z,6976.00
2018-12-30T10:21:11.568Z,6812.00
2018-12-30T10:22:11.622Z,6768.00
2018-12-30T10:23:11.516Z,6348.00
2018-12-30T10:24:11.548Z,6608.00
2018-12-30T10:25:11.638Z,6456.00
2018-12-30T10:26:11.488Z,6664.00
2018-12-30T10:27:11.474Z,6972.00
2018-12-30T10:28:11.491Z,6548.00
2018-12-30T10:29:11.454Z,6328.00
2018-12-30T10:30:11.471Z,5628.00
2018-12-30T10:31:11.431Z,4872.00
2018-12-30T10:32:11.459Z,4664.00
2018-12-30T10:33:11.405Z,4632.00
2018-12-30T10:34:11.432Z,4660.00
2018-12-30T10:35:11.404Z,4732.00
2018-12-30T10:36:11.375Z,4596.00
2018-12-30T10:37:11.371Z,4308.00
2018-12-30T10:38:11.425Z,4032.00
2018-12-30T10:39:11.362Z,3800.00
2018-12-30T10:40:11.362Z,3956.00
2018-12-30T10:41:11.320Z,4288.00
2018-12-30T10:42:11.312Z,4684.00
2018-12-30T10:43:11.346Z,5008.00
2018-12-30T10:44:11.303Z,5204.00
2018-12-30T10:45:11.289Z,5268.00
2018-12-30T10:46:11.325Z,5400.00
2018-12-30T10:47:11.253Z,5708.00
2018-12-30T10:48:11.258Z,5960.00
2018-12-30T10:49:11.241Z,6268.00
2018-12-30T10:50:11.221Z,6668.00
2018-12-30T10:51:11.232Z,6672.00
2018-12-30T10:52:11.292Z,6444.00
2018-12-30T10:53:11.190Z,6372.00
2018-12-30T10:54:11.178Z,6284.00
2018-12-30T10:55:11.166Z,6148.00
2018-12-30T10:56:11.153Z,5912.00
2018-12-30T10:57:11.142Z,5668.00
2018-12-30T10:58:11.197Z,5652.00
2018-12-30T10:59:11.133Z,5912.00
2018-12-30T11:00:11.115Z,6020.00
2018-12-30T11:01:11.123Z,5476.00
2018-12-30T11:02:11.090Z,4644.00
2018-12-30T11:03:11.094Z,3876.00
2018-12-30T11:04:11.098Z,3672.00
2018-12-30T11:05:11.067Z,3984.00
2018-12-30T11:06:11.142Z,4684.00
2018-12-30T11:07:11.037Z,5340.00
2018-12-30T11:08:11.030Z,4832.00
2018-12-30T11:09:11.018Z,4220.00
2018-12-30T11:10:11.048Z,4308.00
2018-12-30T11:11:10.995Z,4512.00
2018-12-30T11:12:11.014Z,4752.00
2018-12-30T11:13:10.982Z,5172.00
2018-12-30T11:14:10.966Z,5568.00
2018-12-30T11:15:10.951Z,5856.00
2018-12-30T11:16:10.978Z,5908.00
2018-12-30T11:17:10.950Z,5920.00
2018-12-30T11:18:10.934Z,5532.00
2018-12-30T11:19:10.907Z,5228.00
2018-12-30T11:20:10.892Z,5156.00
2018-12-30T11:21:10.883Z,5680.00
2018-12-30T11:22:10.917Z,6448.00
2018-12-30T11:23:10.870Z,6212.00
2018-12-30T11:24:10.868Z,6076.00
2018-12-30T11:25:10.929Z,5672.00
2018-12-30T11:26:10.833Z,5332.00
2018-12-30T11:27:10.826Z,5232.00
2018-12-30T11:28:10.889Z,5148.00
2018-12-30T11:29:10.810Z,5772.00
2018-12-30T11:30:10.801Z,7104.00
2018-12-30T11:31:10.859Z,7408.00
2018-12-30T11:32:10.775Z,7324.00
2018-12-30T11:33:10.756Z,7020.00
2018-12-30T11:34:10.771Z,5788.00
2018-12-30T11:35:10.748Z,5720.00
2018-12-30T11:36:10.727Z,6040.00
2018-12-30T11:37:10.704Z,6528.00
2018-12-30T11:38:10.699Z,6720.00
2018-12-30T11:39:10.718Z,6984.00
2018-12-30T11:40:10.727Z,6932.00
2018-12-30T11:41:10.668Z,6848.00
2018-12-30T11:42:10.652Z,7592.00
2018-12-30T11:43:10.654Z,7892.00
2018-12-30T11:44:10.631Z,8088.00
2018-12-30T11:45:10.665Z,8164.00
2018-12-30T11:46:10.641Z,7932.00
2018-12-30T11:47:10.601Z,7036.00
2018-12-30T11:48:10.596Z,6352.00
2018-12-30T11:49:10.611Z,5996.00
2018-12-30T11:50:10.564Z,6064.00
2018-12-30T11:51:10.554Z,6248.00
2018-12-30T11:52:10.594Z,6208.00
2018-12-30T11:53:10.558Z,6072.00
2018-12-30T11:54:16.433Z,5796.00
2018-12-30T11:55:11.512Z,5764.00
2018-12-30T11:56:10.501Z,5776.00
2018-12-30T11:57:10.488Z,5356.00
2018-12-30T11:58:10.528Z,4984.00
2018-12-30T11:59:10.471Z,4888.00
2018-12-30T12:00:10.467Z,4520.00
2018-12-30T12:01:10.458Z,4156.00
2018-12-30T12:02:10.446Z,4124.00
2018-12-30T12:03:10.429Z,4024.00
2018-12-30T12:04:10.447Z,3756.00
2018-12-30T12:05:10.407Z,4008.00
2018-12-30T12:06:10.388Z,4360.00
2018-12-30T12:07:10.375Z,4340.00
2018-12-30T12:08:10.370Z,4028.00
2018-12-30T12:09:10.366Z,3780.00
2018-12-30T12:10:10.383Z,3496.00
2018-12-30T12:11:10.351Z,3200.00
2018-12-30T12:12:10.322Z,2884.00
2018-12-30T12:13:10.322Z,2908.00
2018-12-30T12:14:10.304Z,3056.00
2018-12-30T12:15:10.310Z,3000.00
2018-12-30T12:16:10.311Z,3416.00
2018-12-30T12:17:10.279Z,3704.00
2018-12-30T12:18:10.263Z,3240.00
2018-12-30T12:19:10.281Z,2720.00
2018-12-30T12:20:10.232Z,2888.00
2018-12-30T12:21:10.256Z,3076.00
2018-12-30T12:22:10.283Z,3232.00
2018-12-30T12:23:10.219Z,3384.00
2018-12-30T12:24:10.191Z,3736.00
2018-12-30T12:25:10.221Z,4612.00
2018-12-30T12:26:10.185Z,5664.00
2018-12-30T12:27:10.160Z,6248.00
2018-12-30T12:28:10.186Z,6316.00
2018-12-30T12:29:10.149Z,6240.00
2018-12-30T12:30:10.129Z,6396.00
2018-12-30T12:31:10.154Z,6288.00
2018-12-30T12:32:10.139Z,6068.00
2018-12-30T12:33:10.121Z,5952.00
2018-12-30T12:34:10.126Z,5680.00
2018-12-30T12:35:10.070Z,5272.00
2018-12-30T12:36:10.071Z,4788.00
2018-12-30T12:37:10.136Z,4416.00
2018-12-30T12:38:10.050Z,4280.00
2018-12-30T12:39:10.023Z,4116.00
2018-12-30T12:40:10.063Z,3788.00
2018-12-30T12:41:10.001Z,3620.00
2018-12-30T12:42:10.000Z,3688.00
2018-12-30T12:43:09.986Z,3852.00
2018-12-30T12:44:09.989Z,4160.00
2018-12-30T12:45:09.977Z,4424.00
2018-12-30T12:46:09.982Z,4620.00
2018-12-30T12:47:09.945Z,4604.00